createdAt,value
2022-10-13T00:01:31.459Z,32.80
2022-10-13T00:04:02.576Z,35.50
2022-10-13T00:06:30.272Z,48.80
2022-10-13T00:09:00.948Z,47.40
2022-10-13T00:11:31.952Z,45.10
2022-10-13T00:14:04.251Z,48.40
2022-10-13T00:16:33.413Z,40.40
2022-10-13T00:19:05.411Z,37.20
2022-10-13T00:21:33.150Z,33.70
2022-10-13T00:24:00.785Z,33.30
2022-10-13T00:26:31.578Z,35.70
2022-10-13T00:29:02.506Z,34.90
2022-10-13T00:31:33.343Z,35.80
2022-10-13T00:34:04.558Z,31.10
2022-10-13T00:36:33.182Z,34.90
2022-10-13T00:39:01.290Z,36.80
2022-10-13T00:41:29.013Z,34.80
2022-10-13T00:44:05.334Z,36.40
2022-10-13T00:46:37.811Z,33.00
2022-10-13T00:49:15.166Z,29.70
2022-10-13T00:51:49.305Z,34.40
2022-10-13T00:54:24.341Z,40.10
2022-10-13T00:56:55.677Z,43.70
2022-10-13T00:59:30.811Z,46.00
2022-10-13T01:02:02.919Z,46.30
2022-10-13T01:04:42.124Z,46.60
2022-10-13T01:07:14.900Z,44.10
2022-10-13T01:09:42.717Z,45.20
2022-10-13T01:12:41.769Z,47.00
2022-10-13T01:15:12.107Z,43.80
2022-10-13T01:17:45.565Z,43.40
2022-10-13T01:20:35.723Z,43.80
2022-10-13T01:23:47.194Z,42.80
2022-10-13T01:26:42.378Z,40.70
2022-10-13T01:29:18.921Z,40.00
2022-10-13T01:32:04.965Z,41.10
2022-10-13T01:35:03.606Z,39.20
2022-10-13T01:38:07.864Z,39.30
2022-10-13T01:40:57.539Z,38.40
2022-10-13T01:43:37.469Z,36.40
2022-10-13T01:46:14.703Z,35.30
2022-10-13T01:48:46.976Z,35.90
2022-10-13T01:51:21.815Z,33.20
2022-10-13T01:53:53.276Z,34.30
2022-10-13T01:56:21.100Z,31.30
2022-10-13T01:58:53.953Z,33.50
2022-10-13T02:02:00.296Z,28.30
2022-10-13T02:04:50.198Z,27.50
2022-10-13T02:07:31.080Z,35.70
2022-10-13T02:10:14.023Z,36.40
2022-10-13T02:12:55.013Z,37.20
2022-10-13T02:15:33.638Z,36.40
2022-10-13T02:18:07.331Z,33.50
2022-10-13T02:23:13.599Z,35.70
2022-10-13T02:25:45.429Z,34.70
2022-10-13T02:28:17.000Z,34.00
2022-10-13T02:30:48.471Z,33.70
2022-10-13T02:33:19.397Z,32.70
2022-10-13T02:35:47.151Z,32.50
2022-10-13T02:38:14.860Z,30.50
2022-10-13T02:40:42.622Z,31.40
2022-10-13T02:43:10.265Z,23.40
2022-10-13T02:45:38.008Z,25.80
2022-10-13T02:48:12.315Z,22.90
2022-10-13T02:50:40.020Z,22.80
2022-10-13T02:53:07.835Z,22.50
2022-10-13T02:55:35.489Z,22.40
2022-10-13T02:58:06.296Z,23.10
2022-10-13T03:00:34.138Z,22.40
2022-10-13T03:03:01.873Z,24.90
2022-10-13T03:05:32.458Z,28.40
2022-10-13T03:08:00.309Z,22.70
2022-10-13T03:10:31.014Z,22.40
2022-10-13T03:13:02.098Z,26.70
2022-10-13T03:15:29.810Z,28.50
2022-10-13T03:17:57.525Z,30.40
2022-10-13T03:20:28.498Z,28.80
2022-10-13T03:22:56.206Z,33.40
2022-10-13T03:25:23.902Z,30.20
2022-10-13T03:27:51.753Z,27.70
2022-10-13T03:30:19.387Z,28.40
2022-10-13T03:32:47.093Z,26.90
2022-10-13T03:35:15.747Z,26.60
2022-10-13T03:37:44.651Z,25.80
2022-10-13T03:40:12.716Z,22.30
2022-10-13T03:42:43.682Z,24.80
2022-10-13T03:45:14.970Z,26.30
2022-10-13T03:47:42.846Z,27.30
2022-10-13T03:50:14.784Z,27.70
2022-10-13T03:52:44.858Z,29.80
2022-10-13T03:55:12.642Z,29.20
2022-10-13T03:57:40.333Z,21.50
2022-10-13T04:00:10.863Z,27.70
2022-10-13T04:02:39.223Z,25.80
2022-10-13T04:05:07.051Z,25.50
2022-10-13T04:07:34.771Z,27.80
2022-10-13T04:10:02.564Z,20.80
2022-10-13T04:12:30.220Z,22.50
2022-10-13T04:15:02.904Z,25.80
2022-10-13T04:17:30.661Z,29.60
2022-10-13T04:20:00.577Z,27.80
2022-10-13T04:22:28.242Z,28.90
2022-10-13T04:24:59.209Z,28.90
2022-10-13T04:27:27.075Z,29.60
2022-10-13T04:29:54.786Z,29.60
2022-10-13T04:32:23.000Z,28.90
2022-10-13T04:34:51.123Z,32.00
2022-10-13T04:37:18.877Z,33.20
2022-10-13T04:39:46.518Z,30.90
2022-10-13T04:42:16.334Z,30.90
2022-10-13T04:44:44.008Z,29.50
2022-10-13T04:47:11.702Z,31.80
2022-10-13T04:49:39.387Z,31.20
2022-10-13T04:52:07.118Z,33.40
2022-10-13T04:54:34.951Z,32.70
2022-10-13T04:57:02.670Z,38.80
2022-10-13T04:59:30.381Z,36.80
2022-10-13T05:01:57.994Z,41.90
2022-10-13T05:04:25.760Z,38.50
2022-10-13T05:07:16.536Z,37.00
2022-10-13T05:09:41.301Z,34.40
2022-10-13T05:12:12.417Z,26.20
2022-10-13T05:14:40.898Z,25.70
2022-10-13T05:17:08.637Z,23.00
2022-10-13T05:19:39.575Z,26.30
2022-10-13T05:22:07.493Z,29.80
2022-10-13T05:24:38.765Z,29.30
2022-10-13T05:27:13.493Z,22.90
2022-10-13T05:29:42.467Z,23.20
2022-10-13T05:32:17.068Z,22.70
2022-10-13T05:34:44.945Z,24.70
2022-10-13T05:37:12.545Z,23.90
2022-10-13T05:39:42.331Z,22.00
2022-10-13T05:42:13.037Z,16.40
2022-10-13T05:44:40.721Z,35.00
2022-10-13T05:47:08.417Z,27.60
2022-10-13T05:49:42.808Z,26.70
2022-10-13T05:52:14.515Z,28.00
2022-10-13T05:54:48.580Z,31.90
2022-10-13T05:57:46.670Z,35.00
2022-10-13T06:00:19.338Z,37.80
2022-10-13T06:02:57.225Z,35.50
2022-10-13T06:05:27.531Z,33.20
2022-10-13T06:07:58.522Z,33.80
2022-10-13T06:10:26.433Z,32.30
2022-10-13T06:12:54.144Z,26.30
2022-10-13T06:15:27.071Z,26.30
2022-10-13T06:17:56.045Z,24.20
2022-10-13T06:20:23.965Z,24.80
2022-10-13T06:22:51.712Z,24.40
2022-10-13T06:25:19.393Z,25.10
2022-10-13T06:27:47.148Z,24.40
2022-10-13T06:30:17.998Z,26.30
2022-10-13T06:32:45.661Z,25.20
2022-10-13T06:35:13.359Z,25.30
2022-10-13T06:37:41.057Z,26.10
2022-10-13T06:40:11.884Z,24.80
2022-10-13T06:42:39.607Z,32.20
2022-10-13T06:45:07.889Z,28.40
2022-10-13T06:47:35.703Z,26.50
2022-10-13T06:50:03.697Z,24.90
2022-10-13T06:52:31.390Z,25.60
2022-10-13T06:54:59.117Z,23.90
2022-10-13T06:57:27.223Z,24.10
2022-10-13T06:59:55.004Z,25.50
2022-10-13T07:02:25.515Z,23.70
2022-10-13T07:04:53.167Z,23.80
2022-10-13T07:07:20.883Z,23.00
2022-10-13T07:09:50.866Z,23.90
2022-10-13T07:12:22.589Z,23.90
2022-10-13T07:14:50.711Z,25.80
2022-10-13T07:17:18.815Z,22.40
2022-10-13T07:19:55.682Z,22.20
2022-10-13T07:22:30.176Z,23.30
2022-10-13T07:24:57.830Z,25.00
2022-10-13T07:27:25.759Z,25.70
2022-10-13T07:29:56.650Z,23.60
2022-10-13T07:32:24.473Z,25.50
2022-10-13T07:34:54.371Z,25.50
2022-10-13T07:37:22.469Z,26.50
2022-10-13T07:39:53.474Z,26.70
2022-10-13T07:42:21.147Z,27.30
2022-10-13T07:44:48.771Z,29.40
2022-10-13T07:47:16.456Z,27.30
2022-10-13T07:49:47.244Z,29.20
2022-10-13T07:52:14.946Z,29.00
2022-10-13T07:54:42.667Z,29.10
2022-10-13T07:57:10.329Z,28.80
2022-10-13T07:59:38.192Z,28.40
2022-10-13T08:02:05.886Z,28.90
2022-10-13T08:04:37.733Z,30.50
2022-10-13T08:07:06.734Z,27.20
2022-10-13T08:09:37.166Z,30.40
2022-10-13T08:12:04.965Z,31.20
2022-10-13T08:14:32.753Z,28.80
2022-10-13T08:17:03.604Z,27.80
2022-10-13T08:19:31.346Z,28.10
2022-10-13T08:22:00.169Z,27.80
2022-10-13T08:24:31.103Z,28.30
2022-10-13T08:27:06.479Z,26.80
2022-10-13T08:29:34.222Z,27.20
2022-10-13T08:32:01.952Z,27.30
2022-10-13T08:34:29.799Z,31.00
2022-10-13T08:37:00.707Z,29.70
2022-10-13T08:39:28.757Z,33.20
2022-10-13T08:42:00.425Z,33.90
2022-10-13T08:48:05.596Z,33.90
2022-10-13T08:50:41.038Z,34.60
2022-10-13T08:53:23.547Z,34.30
2022-10-13T08:56:33.452Z,32.40
2022-10-13T08:59:05.357Z,31.30
2022-10-13T09:01:41.213Z,29.30
2022-10-13T09:04:36.435Z,28.90
2022-10-13T09:07:24.850Z,27.00
2022-10-13T09:10:04.748Z,25.90
2022-10-13T09:12:34.525Z,28.10
2022-10-13T09:15:09.975Z,31.00
2022-10-13T09:17:41.938Z,28.70
2022-10-13T09:20:27.663Z,27.60
2022-10-13T09:23:06.060Z,28.40
2022-10-13T09:25:51.505Z,28.40
2022-10-13T09:28:32.104Z,29.50
2022-10-13T09:31:09.000Z,28.20
2022-10-13T09:33:45.075Z,28.30
2022-10-13T09:36:17.465Z,27.80
2022-10-13T09:39:07.279Z,27.90
2022-10-13T09:41:39.402Z,26.40
2022-10-13T09:44:23.160Z,27.40
2022-10-13T09:47:02.266Z,30.40
2022-10-13T09:49:39.355Z,27.70
2022-10-13T09:52:13.503Z,27.70
2022-10-13T09:54:46.805Z,26.20
2022-10-13T09:59:53.248Z,26.50
2022-10-13T10:02:35.368Z,26.40
2022-10-13T10:05:19.603Z,26.60
2022-10-13T10:07:50.973Z,25.40
2022-10-13T10:10:35.701Z,24.30
2022-10-13T10:13:10.484Z,21.80
2022-10-13T10:16:08.214Z,20.40
2022-10-13T10:18:45.211Z,18.70
2022-10-13T10:21:33.044Z,16.30
2022-10-13T10:24:39.371Z,17.10
2022-10-13T10:30:02.585Z,15.90
2022-10-13T10:32:37.725Z,14.50
2022-10-13T10:35:23.603Z,12.70
2022-10-13T10:38:24.751Z,11.90
2022-10-13T10:41:17.816Z,11.70
2022-10-13T10:44:05.512Z,12.30
2022-10-13T10:46:45.349Z,11.10
2022-10-13T10:49:23.139Z,11.00
2022-10-13T10:51:52.460Z,11.70
2022-10-13T10:54:26.472Z,11.50
2022-10-13T10:57:11.294Z,11.50
2022-10-13T10:59:55.403Z,11.30
2022-10-13T11:03:11.146Z,11.50
2022-10-13T11:06:11.944Z,11.10
2022-10-13T11:09:14.183Z,11.10
2022-10-13T11:11:45.691Z,10.20
2022-10-13T11:14:31.333Z,12.10
2022-10-13T11:17:06.789Z,12.40
2022-10-13T11:19:39.452Z,11.50
2022-10-13T11:22:07.194Z,11.20
2022-10-13T11:24:41.661Z,10.30
2022-10-13T11:27:15.804Z,10.80
2022-10-13T11:30:03.271Z,10.30
2022-10-13T11:32:36.676Z,10.30
2022-10-13T11:35:05.668Z,10.30
2022-10-13T11:38:17.761Z,11.40
2022-10-13T11:41:21.722Z,11.10
2022-10-13T11:44:22.423Z,10.30
2022-10-13T11:47:14.505Z,10.80
2022-10-13T11:49:51.009Z,10.10
2022-10-13T11:52:49.129Z,9.80
2022-10-13T11:55:27.948Z,9.20
2022-10-13T11:58:30.302Z,9.90
2022-10-13T12:01:07.204Z,9.00
2022-10-13T12:03:43.703Z,10.10
2022-10-13T12:06:20.721Z,9.10
2022-10-13T12:08:53.432Z,9.70
2022-10-13T12:11:39.275Z,8.90
2022-10-13T12:14:24.308Z,10.20
2022-10-13T12:17:00.010Z,9.60
2022-10-13T12:19:32.471Z,9.40
2022-10-13T12:22:02.133Z,8.50
2022-10-13T12:24:32.552Z,10.10
2022-10-13T12:27:23.044Z,10.50
2022-10-13T12:29:50.914Z,10.50
2022-10-13T12:32:31.916Z,10.90
2022-10-13T12:35:18.791Z,10.40
2022-10-13T12:37:52.037Z,10.70
2022-10-13T12:40:22.974Z,9.90
2022-10-13T12:42:54.134Z,9.40
2022-10-13T12:45:34.390Z,9.20
2022-10-13T12:48:02.182Z,9.20
2022-10-13T12:50:37.139Z,9.00
2022-10-13T12:53:24.718Z,8.70
2022-10-13T12:55:59.162Z,8.90
2022-10-13T12:58:37.045Z,8.10
2022-10-13T13:01:10.558Z,9.10
2022-10-13T13:03:43.617Z,8.30
2022-10-13T13:06:22.289Z,8.60
2022-10-13T13:09:12.356Z,9.40
2022-10-13T13:11:41.041Z,10.10
2022-10-13T13:14:39.757Z,8.80
2022-10-13T13:17:27.612Z,9.60
2022-10-13T13:20:21.682Z,8.80
2022-10-13T13:22:50.946Z,8.30
2022-10-13T13:25:18.967Z,8.30
2022-10-13T13:27:46.768Z,8.40
2022-10-13T13:30:20.048Z,8.60
2022-10-13T13:32:48.266Z,9.20
2022-10-13T13:35:18.044Z,9.20
2022-10-13T13:37:51.514Z,8.90
2022-10-13T13:40:27.591Z,7.30
2022-10-13T13:42:55.913Z,8.10
2022-10-13T13:45:27.029Z,8.80
2022-10-13T13:48:00.659Z,8.40
2022-10-13T13:50:39.471Z,8.00
2022-10-13T13:53:07.322Z,8.50
2022-10-13T13:55:38.792Z,8.40
2022-10-13T13:58:06.587Z,8.00
2022-10-13T14:00:34.265Z,8.10
2022-10-13T14:03:01.975Z,8.20
2022-10-13T14:05:31.656Z,8.70
2022-10-13T14:08:03.822Z,9.50
2022-10-13T14:10:31.522Z,8.60
2022-10-13T14:12:59.337Z,8.10
2022-10-13T14:15:30.151Z,8.50
2022-10-13T14:17:57.986Z,9.90
2022-10-13T14:20:25.781Z,9.50
2022-10-13T14:22:53.802Z,10.00
2022-10-13T14:25:22.526Z,9.60
2022-10-13T14:27:50.309Z,8.90
2022-10-13T14:30:18.211Z,8.90
2022-10-13T14:32:45.873Z,8.40
2022-10-13T14:35:14.630Z,7.10
2022-10-13T14:37:42.287Z,8.60
2022-10-13T14:40:10.301Z,8.40
2022-10-13T14:42:39.601Z,8.70
2022-10-13T14:45:09.663Z,7.70
2022-10-13T14:47:37.333Z,8.60
2022-10-13T14:50:05.743Z,9.10
2022-10-13T14:52:35.292Z,9.70
2022-10-13T14:55:06.580Z,9.50
2022-10-13T14:57:34.418Z,9.00
2022-10-13T15:00:02.874Z,8.80
2022-10-13T15:02:30.880Z,9.50
2022-10-13T15:04:58.564Z,10.20
2022-10-13T15:07:26.400Z,11.10
2022-10-13T15:10:04.864Z,11.50
2022-10-13T15:12:36.384Z,12.10
2022-10-13T15:15:07.840Z,13.70
2022-10-13T15:17:37.701Z,18.30
2022-10-13T15:20:07.401Z,17.80
2022-10-13T15:22:37.418Z,18.60
2022-10-13T15:25:09.892Z,18.60
2022-10-13T15:27:41.999Z,17.70
2022-10-13T15:30:13.524Z,18.10
2022-10-13T15:32:41.425Z,18.40
2022-10-13T15:35:09.376Z,15.90
2022-10-13T15:37:37.033Z,15.20
2022-10-13T15:40:10.539Z,12.60
2022-10-13T15:42:38.802Z,11.80
2022-10-13T15:45:11.056Z,11.70
2022-10-13T15:50:09.311Z,10.40
2022-10-13T15:52:39.768Z,11.30
2022-10-13T15:55:12.167Z,12.00
2022-10-13T15:57:40.369Z,14.00
2022-10-13T16:00:12.674Z,12.10
2022-10-13T16:02:44.484Z,11.90
2022-10-13T16:05:16.223Z,11.50
2022-10-13T16:07:47.681Z,14.70
2022-10-13T16:10:19.073Z,13.00
2022-10-13T16:12:53.134Z,13.60
2022-10-13T16:15:20.789Z,13.80
2022-10-13T16:17:54.233Z,12.50
2022-10-13T16:20:21.872Z,13.70
2022-10-13T16:22:49.606Z,14.10
2022-10-13T16:25:17.267Z,13.40
2022-10-13T16:27:47.774Z,13.40
2022-10-13T16:30:15.465Z,13.00
2022-10-13T16:32:45.223Z,13.20
2022-10-13T16:35:13.192Z,14.00
2022-10-13T16:37:44.183Z,13.60
2022-10-13T16:40:11.936Z,13.50
2022-10-13T16:42:39.627Z,14.80
2022-10-13T16:45:07.750Z,12.80
2022-10-13T16:47:35.448Z,13.70
2022-10-13T16:50:06.937Z,14.80
2022-10-13T16:52:34.833Z,14.10
2022-10-13T16:55:06.766Z,14.80
2022-10-13T16:57:34.749Z,13.40
2022-10-13T17:00:02.550Z,13.40
2022-10-13T17:02:37.783Z,13.50
2022-10-13T17:05:05.512Z,13.50
2022-10-13T17:07:35.439Z,14.50
2022-10-13T17:10:06.160Z,15.90
2022-10-13T17:12:33.890Z,15.50
2022-10-13T17:15:01.655Z,14.90
2022-10-13T17:17:32.615Z,15.70
2022-10-13T17:20:00.322Z,14.40
2022-10-13T17:22:28.281Z,15.00
2022-10-13T17:24:55.963Z,14.50
2022-10-13T17:27:24.024Z,14.10
2022-10-13T17:29:56.046Z,15.50
2022-10-13T17:32:26.795Z,15.90
2022-10-13T17:34:54.452Z,15.60
2022-10-13T17:37:22.628Z,17.00
2022-10-13T17:39:53.610Z,17.30
2022-10-13T17:42:21.363Z,15.90
2022-10-13T17:44:49.974Z,17.00
2022-10-13T17:47:17.932Z,17.90
2022-10-13T17:49:49.852Z,16.50
2022-10-13T17:52:18.094Z,16.40
2022-10-13T17:54:45.756Z,15.60
2022-10-13T17:57:13.499Z,17.50
2022-10-13T17:59:42.368Z,17.10
2022-10-13T18:02:10.182Z,17.80
2022-10-13T18:04:41.282Z,18.90
2022-10-13T18:07:09.091Z,19.20
2022-10-13T18:09:36.774Z,18.10
2022-10-13T18:12:07.275Z,18.10
2022-10-13T18:14:37.743Z,18.20
2022-10-13T18:17:05.468Z,17.90
2022-10-13T18:19:40.138Z,19.10
2022-10-13T18:22:11.270Z,39.70
2022-10-13T18:24:40.415Z,28.10
2022-10-13T18:27:10.257Z,20.80
2022-10-13T18:29:38.073Z,20.30
2022-10-13T18:32:05.722Z,27.00
2022-10-13T18:34:36.332Z,23.60
2022-10-13T18:37:07.237Z,20.60
2022-10-13T18:39:35.205Z,32.90
2022-10-13T18:42:02.889Z,25.00
2022-10-13T18:44:30.620Z,41.60
2022-10-13T18:47:06.516Z,42.50
2022-10-13T18:49:34.236Z,32.90
2022-10-13T18:52:06.588Z,30.50
2022-10-13T18:54:34.249Z,53.90
2022-10-13T18:57:05.140Z,35.70
2022-10-13T18:59:37.159Z,52.00
2022-10-13T19:02:05.016Z,43.50
2022-10-13T19:04:38.401Z,31.20
2022-10-13T19:07:06.267Z,27.70
2022-10-13T19:09:34.082Z,30.10
2022-10-13T19:12:01.759Z,48.40
2022-10-13T19:14:30.937Z,33.90
2022-10-13T19:17:01.957Z,33.20
2022-10-13T19:19:31.905Z,30.40
2022-10-13T19:21:59.556Z,56.30
2022-10-13T19:24:27.917Z,57.10
2022-10-13T19:27:01.461Z,56.30
2022-10-13T19:29:31.011Z,52.90
2022-10-13T19:31:59.344Z,41.80
2022-10-13T19:34:27.160Z,34.00
2022-10-13T19:37:01.893Z,30.30
2022-10-13T19:39:29.861Z,34.70
2022-10-13T19:42:00.797Z,34.00
2022-10-13T19:44:31.256Z,31.30
2022-10-13T19:46:58.939Z,30.10
2022-10-13T19:49:30.184Z,32.80
2022-10-13T19:51:58.055Z,33.20
2022-10-13T19:54:28.992Z,42.40
2022-10-13T19:56:59.193Z,57.30
2022-10-13T19:59:30.303Z,54.80
2022-10-13T20:01:58.052Z,45.10
2022-10-13T20:04:30.131Z,45.00
2022-10-13T20:07:01.438Z,48.90
2022-10-13T20:09:30.006Z,52.60
2022-10-13T20:11:57.676Z,47.70
2022-10-13T20:14:28.678Z,51.90
2022-10-13T20:17:00.216Z,46.40
2022-10-13T20:19:28.052Z,51.90
2022-10-13T20:21:57.201Z,55.90
2022-10-13T20:24:24.997Z,48.80
2022-10-13T20:26:52.732Z,48.90
2022-10-13T20:29:20.437Z,47.50
2022-10-13T20:31:48.186Z,47.80
2022-10-13T20:34:15.956Z,45.20
2022-10-13T20:36:43.753Z,44.30
2022-10-13T20:39:11.404Z,45.80
2022-10-13T20:41:39.092Z,43.50
2022-10-13T20:44:06.753Z,44.00
2022-10-13T20:46:37.713Z,44.50
2022-10-13T20:49:13.476Z,43.00
2022-10-13T20:51:45.484Z,41.50
2022-10-13T20:54:17.452Z,42.30
2022-10-13T20:56:49.026Z,42.90
2022-10-13T20:59:16.725Z,38.90
2022-10-13T21:01:44.407Z,42.30
2022-10-13T21:04:17.002Z,42.40
2022-10-13T21:06:44.797Z,41.20
2022-10-13T21:09:17.245Z,38.80
2022-10-13T21:11:45.242Z,35.20
2022-10-13T21:14:14.377Z,38.70
2022-10-13T21:16:49.077Z,39.40
2022-10-13T21:19:24.185Z,41.30
2022-10-13T21:21:52.376Z,38.50
2022-10-13T21:24:22.547Z,38.30
2022-10-13T21:26:50.311Z,37.50
2022-10-13T21:29:22.427Z,37.70
2022-10-13T21:31:56.342Z,38.00
2022-10-13T21:34:24.116Z,33.50
2022-10-13T21:36:55.112Z,33.90
2022-10-13T21:39:22.782Z,33.10
2022-10-13T21:41:50.527Z,33.50
2022-10-13T21:44:19.288Z,33.00
2022-10-13T21:46:50.223Z,30.10
2022-10-13T21:49:21.424Z,30.50
2022-10-13T21:51:49.085Z,30.40
2022-10-13T21:54:16.826Z,30.90
2022-10-13T21:56:48.213Z,30.30
2022-10-13T21:59:15.925Z,31.20
2022-10-13T22:01:47.180Z,29.30
2022-10-13T22:04:18.369Z,31.40
2022-10-13T22:06:46.170Z,31.90
2022-10-13T22:09:17.629Z,32.30
2022-10-13T22:11:45.283Z,30.80
2022-10-13T22:14:16.714Z,30.70
2022-10-13T22:16:50.485Z,28.50
2022-10-13T22:19:25.019Z,28.50
2022-10-13T22:21:52.856Z,29.20
2022-10-13T22:24:24.653Z,30.30
2022-10-13T22:26:52.254Z,28.50
2022-10-13T22:29:24.673Z,27.00
2022-10-13T22:32:00.487Z,29.20
2022-10-13T22:34:32.057Z,28.20
2022-10-13T22:36:59.709Z,27.30
2022-10-13T22:39:31.383Z,27.30
2022-10-13T22:41:59.042Z,28.40
2022-10-13T22:44:26.816Z,27.80
2022-10-13T22:46:54.467Z,28.10
2022-10-13T22:49:22.122Z,29.40
2022-10-13T22:51:49.753Z,28.60
2022-10-13T22:54:17.407Z,28.20
2022-10-13T22:56:45.071Z,30.10
2022-10-13T22:59:17.043Z,30.30
2022-10-13T23:01:44.807Z,28.40
2022-10-13T23:04:12.549Z,29.20
2022-10-13T23:06:43.703Z,29.10
2022-10-13T23:09:15.954Z,29.10
2022-10-13T23:11:43.713Z,28.30
2022-10-13T23:14:15.234Z,29.60
2022-10-13T23:16:49.634Z,29.40
2022-10-13T23:19:22.125Z,30.00
2022-10-13T23:21:53.337Z,29.90
2022-10-13T23:24:21.835Z,29.60
2022-10-13T23:26:49.618Z,27.50
2022-10-13T23:29:17.954Z,28.40
2022-10-13T23:31:49.966Z,30.10
2022-10-13T23:34:17.700Z,29.60
2022-10-13T23:36:49.363Z,28.60
2022-10-13T23:39:17.507Z,30.40
2022-10-13T23:41:49.183Z,30.90
2022-10-13T23:44:23.099Z,31.80
2022-10-13T23:46:50.903Z,31.10
2022-10-13T23:49:18.627Z,29.60
2022-10-13T23:51:46.238Z,29.90
2022-10-13T23:54:13.943Z,31.00
2022-10-13T23:56:45.529Z,30.30
2022-10-13T23:59:13.669Z,27.60
